createdAt,value
2022-12-15T00:02:26.657Z,96526.31
2022-12-15T00:05:12.738Z,96526.91
2022-12-15T00:07:59.114Z,96532.53
2022-12-15T00:10:45.378Z,96531.88
2022-12-15T00:13:32.390Z,96526.84
2022-12-15T00:16:19.346Z,96529.59
2022-12-15T00:19:05.828Z,96528.78
2022-12-15T00:21:53.631Z,96529.88
2022-12-15T00:24:39.962Z,96534.25
2022-12-15T00:27:26.151Z,96533.13
2022-12-15T00:30:12.097Z,96525.06
2022-12-15T00:32:58.491Z,96527.34
2022-12-15T00:35:44.866Z,96517.97
2022-12-15T00:38:33.663Z,96525.22
2022-12-15T00:41:02.106Z,96517.59
2022-12-15T00:43:34.926Z,96522.94
2022-12-15T00:46:22.236Z,96519.75
2022-12-15T00:48:50.440Z,96530.69
2022-12-15T00:51:19.094Z,96522.59
2022-12-15T00:54:06.511Z,96525.88
2022-12-15T00:56:52.854Z,96528.28
2022-12-15T00:59:38.800Z,96525.91
2022-12-15T01:02:25.203Z,96531.28
2022-12-15T01:05:11.407Z,96528.06
2022-12-15T01:07:57.591Z,96534.41
2022-12-15T01:10:43.989Z,96536.75
2022-12-15T01:13:32.126Z,96549.72
2022-12-15T01:16:18.683Z,96545.38
2022-12-15T01:19:04.727Z,96554.47
2022-12-15T01:21:32.661Z,96566.44
2022-12-15T01:24:00.156Z,96561.25
2022-12-15T01:26:27.649Z,96565.03
2022-12-15T01:28:55.190Z,96561.03
2022-12-15T01:31:22.693Z,96561.53
2022-12-15T01:33:54.491Z,96561.88
2022-12-15T01:36:22.011Z,96567.56
2022-12-15T01:38:54.104Z,96569.06
2022-12-15T01:41:22.719Z,96584.00
2022-12-15T01:43:50.429Z,96583.03
2022-12-15T01:46:21.637Z,96578.81
2022-12-15T01:49:15.702Z,96578.16
2022-12-15T01:51:45.139Z,96588.00
2022-12-15T01:54:27.100Z,96587.00
2022-12-15T01:56:59.406Z,96581.59
2022-12-15T01:59:52.238Z,96594.34
2022-12-15T02:02:25.109Z,96597.41
2022-12-15T02:04:56.793Z,96591.56
2022-12-15T02:07:24.792Z,96594.16
2022-12-15T02:09:56.431Z,96588.16
2022-12-15T02:12:42.128Z,96589.78
2022-12-15T02:15:31.304Z,96596.31
2022-12-15T02:18:14.406Z,96593.72
2022-12-15T02:20:48.049Z,96596.13
2022-12-15T02:24:04.577Z,96601.31
2022-12-15T02:27:10.830Z,96600.00
2022-12-15T02:30:03.351Z,96604.81
2022-12-15T02:32:54.236Z,96614.97
2022-12-15T02:35:41.571Z,96620.59
2022-12-15T02:38:10.023Z,96626.75
2022-12-15T02:40:37.839Z,96624.63
2022-12-15T02:43:07.920Z,96631.56
2022-12-15T02:45:48.777Z,96637.84
2022-12-15T02:48:33.091Z,96650.97
2022-12-15T02:51:29.969Z,96648.50
2022-12-15T02:54:13.873Z,96648.97
2022-12-15T02:56:51.279Z,96652.06
2022-12-15T02:59:29.521Z,96648.16
2022-12-15T03:02:07.362Z,96659.63
2022-12-15T03:04:35.176Z,96659.22
2022-12-15T03:07:05.295Z,96665.50
2022-12-15T03:09:33.035Z,96660.34
2022-12-15T03:12:00.864Z,96663.38
2022-12-15T03:14:28.538Z,96661.75
2022-12-15T03:16:56.421Z,96675.66
2022-12-15T03:19:24.439Z,96682.59
2022-12-15T03:21:52.917Z,96679.22
2022-12-15T03:24:20.425Z,96692.28
2022-12-15T03:26:50.228Z,96697.19
2022-12-15T03:29:18.500Z,96701.53
2022-12-15T03:31:46.435Z,96697.75
2022-12-15T03:34:17.688Z,96697.63
2022-12-15T03:36:45.197Z,96705.41
2022-12-15T03:39:12.875Z,96705.22
2022-12-15T03:41:41.857Z,96708.22
2022-12-15T03:44:09.364Z,96696.06
2022-12-15T03:46:36.868Z,96705.50
2022-12-15T03:49:04.459Z,96695.25
2022-12-15T03:51:32.090Z,96695.78
2022-12-15T03:53:59.669Z,96703.13
2022-12-15T03:56:27.238Z,96699.72
2022-12-15T03:58:54.817Z,96707.25
2022-12-15T04:01:36.392Z,96706.06
2022-12-15T04:04:05.170Z,96716.72
2022-12-15T04:06:32.767Z,96709.25
2022-12-15T04:09:00.248Z,96718.63
2022-12-15T04:11:27.760Z,96720.41
2022-12-15T04:13:55.247Z,96722.03
2022-12-15T04:16:22.835Z,96732.38
2022-12-15T04:19:10.435Z,96742.75
2022-12-15T04:21:37.928Z,96743.44
2022-12-15T04:24:24.508Z,96745.06
2022-12-15T04:27:10.730Z,96753.88
2022-12-15T04:29:57.041Z,96756.03
2022-12-15T04:32:43.384Z,96759.81
2022-12-15T04:35:30.698Z,96758.19
2022-12-15T04:38:16.888Z,96759.66
2022-12-15T04:41:03.209Z,96763.94
2022-12-15T04:43:49.354Z,96774.09
2022-12-15T04:46:35.697Z,96775.56
2022-12-15T04:49:21.760Z,96784.91
2022-12-15T04:52:08.029Z,96788.56
2022-12-15T04:54:54.399Z,96796.34
2022-12-15T04:57:40.474Z,96788.34
2022-12-15T05:04:33.279Z,96800.91
2022-12-15T05:07:19.959Z,96791.50
2022-12-15T05:10:10.965Z,96797.56
2022-12-15T05:13:01.384Z,96797.47
2022-12-15T05:15:48.378Z,96807.53
2022-12-15T05:18:34.562Z,96803.97
2022-12-15T05:21:20.737Z,96811.81
2022-12-15T05:24:07.159Z,96818.53
2022-12-15T05:26:53.701Z,96825.63
2022-12-15T05:29:40.968Z,96823.28
2022-12-15T05:32:09.124Z,96827.03
2022-12-15T05:34:37.942Z,96832.94
2022-12-15T05:37:06.672Z,96835.66
2022-12-15T05:39:34.478Z,96842.22
2022-12-15T05:42:01.964Z,96841.13
2022-12-15T05:44:29.596Z,96838.81
2022-12-15T05:46:57.099Z,96843.34
2022-12-15T05:49:24.536Z,96847.63
2022-12-15T05:51:52.994Z,96846.44
2022-12-15T05:54:20.578Z,96856.50
2022-12-15T05:56:50.408Z,96862.50
2022-12-15T05:59:19.359Z,96872.31
2022-12-15T06:01:47.364Z,96873.03
2022-12-15T06:04:15.127Z,96870.13
2022-12-15T06:06:42.858Z,96871.91
2022-12-15T06:09:10.538Z,96881.03
2022-12-15T06:11:38.209Z,96882.81
2022-12-15T06:14:05.984Z,96877.25
2022-12-15T06:16:33.650Z,96883.88
2022-12-15T06:19:02.580Z,96885.66
2022-12-15T06:21:33.218Z,96889.22
2022-12-15T06:24:01.422Z,96898.59
2022-12-15T06:26:37.598Z,96900.38
2022-12-15T06:29:09.387Z,96899.44
2022-12-15T06:31:37.942Z,96904.19
2022-12-15T06:34:11.726Z,96899.13
2022-12-15T06:36:39.975Z,96896.16
2022-12-15T06:39:09.796Z,96902.69
2022-12-15T06:41:37.403Z,96911.53
2022-12-15T06:44:05.154Z,96914.41
2022-12-15T06:46:35.073Z,96917.97
2022-12-15T06:49:02.944Z,96920.28
2022-12-15T06:51:30.548Z,96927.88
2022-12-15T06:53:58.149Z,96928.56
2022-12-15T06:56:33.179Z,96938.47
2022-12-15T06:59:04.409Z,96934.28
2022-12-15T07:01:32.397Z,96936.84
2022-12-15T07:04:01.779Z,96931.41
2022-12-15T07:06:36.602Z,96937.00
2022-12-15T07:09:11.305Z,96939.44
2022-12-15T07:11:38.912Z,96937.44
2022-12-15T07:14:06.512Z,96940.53
2022-12-15T07:16:34.049Z,96949.81
2022-12-15T07:19:01.622Z,96959.06
2022-12-15T07:21:29.137Z,96956.34
2022-12-15T07:23:57.768Z,96961.38
2022-12-15T07:26:26.110Z,96957.84
2022-12-15T07:28:54.604Z,96962.88
2022-12-15T07:31:22.758Z,96969.91
2022-12-15T07:33:52.681Z,96978.03
2022-12-15T07:36:20.913Z,96971.19
2022-12-15T07:38:50.863Z,96974.16
2022-12-15T07:41:20.725Z,96974.97
2022-12-15T07:43:48.706Z,96983.81
2022-12-15T07:46:17.679Z,96980.81
2022-12-15T07:48:50.376Z,96991.91
2022-12-15T07:51:20.178Z,96982.88
2022-12-15T07:53:51.735Z,96995.19
2022-12-15T07:56:20.414Z,97004.44
2022-12-15T07:58:48.024Z,97007.56
2022-12-15T08:01:16.633Z,97001.34
2022-12-15T08:03:45.228Z,97001.84
2022-12-15T08:06:14.575Z,97005.69
2022-12-15T08:08:44.367Z,97000.59
2022-12-15T08:11:14.400Z,97005.09
2022-12-15T08:16:32.251Z,97004.00
2022-12-15T08:18:59.849Z,97006.59
2022-12-15T08:21:27.386Z,97006.31
2022-12-15T08:23:55.253Z,97019.97
2022-12-15T08:26:29.814Z,97028.16
2022-12-15T08:29:24.579Z,97028.91
2022-12-15T08:31:48.372Z,97034.50
2022-12-15T08:34:15.927Z,97031.41
2022-12-15T08:36:43.603Z,97035.09
2022-12-15T08:39:10.997Z,97031.69
2022-12-15T08:41:38.523Z,97031.09
2022-12-15T08:44:06.097Z,97042.28
2022-12-15T08:46:34.949Z,97037.97
2022-12-15T08:49:03.487Z,97031.88
2022-12-15T08:51:32.884Z,97031.69
2022-12-15T08:54:01.332Z,97024.28
2022-12-15T08:56:29.696Z,97021.94
2022-12-15T08:58:59.840Z,97028.16
2022-12-15T09:01:29.162Z,97031.47
2022-12-15T09:03:57.830Z,97033.63
2022-12-15T09:06:30.989Z,97026.00
2022-12-15T09:09:00.948Z,97038.50
2022-12-15T09:11:29.800Z,97038.41
2022-12-15T09:13:57.764Z,97030.59
2022-12-15T09:16:26.144Z,97032.75
2022-12-15T09:18:56.587Z,97030.63
2022-12-15T09:21:26.908Z,97032.16
2022-12-15T09:24:00.643Z,97029.97
2022-12-15T09:26:31.123Z,97025.91
2022-12-15T09:28:59.316Z,97035.38
2022-12-15T09:31:29.702Z,97029.13
2022-12-15T09:33:59.636Z,97036.97
2022-12-15T09:36:28.093Z,97045.47
2022-12-15T09:38:55.768Z,97045.28
2022-12-15T09:41:27.391Z,97045.44
2022-12-15T09:44:06.607Z,97043.16
2022-12-15T09:46:59.957Z,97030.63
2022-12-15T09:49:30.426Z,97033.88
2022-12-15T09:52:10.736Z,97031.41
2022-12-15T09:54:41.968Z,97037.78
2022-12-15T09:57:28.428Z,97043.34
2022-12-15T10:00:14.569Z,97046.28
2022-12-15T10:03:11.223Z,97051.66
2022-12-15T10:06:15.504Z,97045.50
2022-12-15T10:09:01.008Z,97046.28
2022-12-15T10:11:45.312Z,97051.19
2022-12-15T10:14:43.343Z,97041.19
2022-12-15T10:17:28.437Z,97049.59
2022-12-15T10:20:00.955Z,97051.19
2022-12-15T10:22:36.782Z,97053.31
2022-12-15T10:28:16.964Z,97073.28
2022-12-15T10:31:02.502Z,97077.38
2022-12-15T10:33:37.706Z,97076.72
2022-12-15T10:36:16.918Z,97075.91
2022-12-15T10:38:50.295Z,97089.91
2022-12-15T10:41:21.736Z,97087.50
2022-12-15T10:43:51.396Z,97083.91
2022-12-15T10:46:23.093Z,97079.81
2022-12-15T10:48:51.725Z,97085.16
2022-12-15T10:51:25.198Z,97072.78
2022-12-15T10:54:04.729Z,97084.75
2022-12-15T10:56:34.250Z,97088.19
2022-12-15T10:59:24.026Z,97084.28
2022-12-15T11:01:52.654Z,97089.50
2022-12-15T11:04:38.282Z,97083.00
2022-12-15T11:07:14.709Z,97081.81
2022-12-15T11:09:49.327Z,97075.31
2022-12-15T11:12:40.276Z,97069.41
2022-12-15T11:15:22.836Z,97076.59
2022-12-15T11:17:58.534Z,97076.63
2022-12-15T11:20:39.326Z,97081.03
2022-12-15T11:23:28.654Z,97079.22
2022-12-15T11:26:07.304Z,97083.16
2022-12-15T11:28:48.575Z,97092.59
2022-12-15T11:31:37.433Z,97089.16
2022-12-15T11:34:14.080Z,97087.88
2022-12-15T11:37:12.505Z,97094.22
2022-12-15T11:40:19.672Z,97086.06
2022-12-15T11:42:53.125Z,97080.09
2022-12-15T11:45:29.603Z,97085.28
2022-12-15T11:48:15.183Z,97081.06
2022-12-15T11:51:12.625Z,97088.22
2022-12-15T11:54:15.734Z,97080.72
2022-12-15T11:56:49.004Z,97081.69
2022-12-15T11:59:54.935Z,97077.94
2022-12-15T12:03:08.034Z,97076.66
2022-12-15T12:05:35.614Z,97070.06
2022-12-15T12:08:31.655Z,97075.34
2022-12-15T12:11:21.212Z,97071.13
2022-12-15T12:14:13.807Z,97076.69
2022-12-15T12:16:51.232Z,97065.34
2022-12-15T12:19:33.369Z,97066.75
2022-12-15T12:22:10.774Z,97071.44
2022-12-15T12:24:51.008Z,97068.53
2022-12-15T12:27:37.403Z,97064.00
2022-12-15T12:30:15.097Z,97060.75
2022-12-15T12:32:51.254Z,97067.28
2022-12-15T12:35:38.928Z,97071.53
2022-12-15T12:38:09.852Z,97066.84
2022-12-15T12:40:43.220Z,97069.59
2022-12-15T12:43:33.804Z,97068.47
2022-12-15T12:46:42.184Z,97064.88
2022-12-15T12:49:33.496Z,97058.81
2022-12-15T12:52:04.385Z,97054.41
2022-12-15T12:54:37.963Z,97058.75
2022-12-15T12:57:11.585Z,97054.16
2022-12-15T12:59:44.126Z,97058.84
2022-12-15T13:02:24.776Z,97057.56
2022-12-15T13:05:00.139Z,97054.97
2022-12-15T13:07:38.018Z,97066.56
2022-12-15T13:10:08.365Z,97069.81
2022-12-15T13:12:54.139Z,97061.38
2022-12-15T13:15:27.859Z,97064.00
2022-12-15T13:18:04.843Z,97057.97
2022-12-15T13:20:34.824Z,97057.69
2022-12-15T13:23:25.404Z,97046.63
2022-12-15T13:25:56.015Z,97056.41
2022-12-15T13:28:36.115Z,97057.03
2022-12-15T13:31:19.255Z,97062.38
2022-12-15T13:33:52.756Z,97065.97
2022-12-15T13:36:38.611Z,97068.56
2022-12-15T13:39:28.963Z,97072.81
2022-12-15T13:42:33.288Z,97079.16
2022-12-15T13:44:56.951Z,97088.69
2022-12-15T13:47:28.568Z,97082.03
2022-12-15T13:50:02.809Z,97077.50
2022-12-15T13:55:37.407Z,97081.06
2022-12-15T13:58:17.605Z,97078.75
2022-12-15T14:00:51.602Z,97085.91
2022-12-15T14:03:19.818Z,97094.66
2022-12-15T14:05:56.354Z,97095.47
2022-12-15T14:08:26.340Z,97089.75
2022-12-15T14:10:57.084Z,97098.53
2022-12-15T14:13:35.310Z,97104.41
2022-12-15T14:16:23.241Z,97102.03
2022-12-15T14:19:15.069Z,97102.34
2022-12-15T14:21:55.293Z,97101.31
2022-12-15T14:24:40.395Z,97100.78
2022-12-15T14:27:08.770Z,97093.91
2022-12-15T14:29:36.343Z,97095.53
2022-12-15T14:32:04.947Z,97094.03
2022-12-15T14:34:41.984Z,97090.97
2022-12-15T14:37:18.261Z,97095.22
2022-12-15T14:39:50.149Z,97100.22
2022-12-15T14:42:25.218Z,97089.75
2022-12-15T14:44:57.772Z,97104.59
2022-12-15T14:47:29.327Z,97096.59
2022-12-15T14:49:58.494Z,97108.16
2022-12-15T14:52:42.068Z,97104.38
2022-12-15T14:55:21.404Z,97102.25
2022-12-15T14:57:52.665Z,97102.06
2022-12-15T15:00:34.389Z,97097.19
2022-12-15T15:03:05.713Z,97081.06
2022-12-15T15:03:06.627Z,97065.41
2022-12-15T15:06:01.902Z,97084.38
2022-12-15T15:08:32.886Z,97090.47
2022-12-15T15:11:19.373Z,97079.19
2022-12-15T15:13:47.542Z,97076.22
2022-12-15T15:16:18.642Z,97075.53
2022-12-15T15:18:51.470Z,97078.00
2022-12-15T15:21:24.118Z,97083.72
2022-12-15T15:23:59.631Z,97083.72
2022-12-15T15:26:28.884Z,97082.09
2022-12-15T15:28:56.679Z,97087.94
2022-12-15T15:31:41.386Z,97085.25
2022-12-15T15:34:09.562Z,97086.88
2022-12-15T15:36:39.132Z,97084.88
2022-12-15T15:39:20.326Z,97090.00
2022-12-15T15:41:47.953Z,97085.06
2022-12-15T15:44:15.885Z,97080.09
2022-12-15T15:46:52.853Z,97079.63
2022-12-15T15:49:23.570Z,97078.19
2022-12-15T15:51:51.149Z,97091.72
2022-12-15T15:54:23.120Z,97089.47
2022-12-15T15:56:50.765Z,97086.75
2022-12-15T15:59:25.167Z,97099.31
2022-12-15T16:01:56.351Z,97096.97
2022-12-15T16:04:25.272Z,97090.72
2022-12-15T16:06:53.473Z,97095.41
2022-12-15T16:09:21.380Z,97099.56
2022-12-15T16:11:48.891Z,97101.78
2022-12-15T16:14:18.051Z,97103.09
2022-12-15T16:16:45.935Z,97100.66
2022-12-15T16:19:13.486Z,97106.63
2022-12-15T16:21:42.819Z,97109.56
2022-12-15T16:24:18.013Z,97117.44
2022-12-15T16:26:49.102Z,97123.09
2022-12-15T16:29:19.052Z,97118.41
2022-12-15T16:31:47.029Z,97121.16
2022-12-15T16:34:16.757Z,97119.53
2022-12-15T16:36:45.062Z,97128.94
2022-12-15T16:39:35.745Z,97136.72
2022-12-15T16:42:04.161Z,97137.81
2022-12-15T16:44:31.671Z,97140.69
2022-12-15T16:46:59.389Z,97141.50
2022-12-15T16:49:27.946Z,97148.34
2022-12-15T16:51:55.709Z,97139.19
2022-12-15T16:54:26.587Z,97142.19
2022-12-15T16:56:55.049Z,97144.22
2022-12-15T16:59:33.567Z,97136.69
2022-12-15T17:02:02.447Z,97133.81
2022-12-15T17:04:30.138Z,97132.81
2022-12-15T17:06:57.698Z,97138.31
2022-12-15T17:09:25.937Z,97140.38
2022-12-15T17:11:53.871Z,97137.78
2022-12-15T17:14:21.361Z,97149.94
2022-12-15T17:16:48.931Z,97145.56
2022-12-15T17:19:21.310Z,97144.06
2022-12-15T17:21:52.860Z,97139.16
2022-12-15T17:24:22.439Z,97138.06
2022-12-15T17:26:50.697Z,97133.97
2022-12-15T17:29:23.490Z,97135.72
2022-12-15T17:31:51.511Z,97131.66
2022-12-15T17:34:33.909Z,97124.16
2022-12-15T17:37:04.536Z,97115.41
2022-12-15T17:39:34.960Z,97121.00
2022-12-15T17:42:03.322Z,97129.75
2022-12-15T17:44:36.309Z,97130.03
2022-12-15T17:47:06.769Z,97124.03
2022-12-15T17:49:37.497Z,97126.19
2022-12-15T17:52:23.447Z,97122.50
2022-12-15T17:54:52.349Z,97122.22
2022-12-15T17:57:19.881Z,97126.84
2022-12-15T17:59:47.681Z,97127.91
2022-12-15T18:02:15.679Z,97124.19
2022-12-15T18:04:44.219Z,97111.22
2022-12-15T18:07:22.978Z,97111.38
2022-12-15T18:09:52.334Z,97119.41
2022-12-15T18:12:26.509Z,97106.31
2022-12-15T18:14:55.189Z,97101.91
2022-12-15T18:17:23.452Z,97107.41
2022-12-15T18:19:51.053Z,97105.91
2022-12-15T18:22:24.854Z,97114.66
2022-12-15T18:24:54.496Z,97113.97
2022-12-15T18:27:27.364Z,97116.41
2022-12-15T18:29:56.709Z,97118.59
2022-12-15T18:32:27.114Z,97125.13
2022-12-15T18:34:55.298Z,97111.84
2022-12-15T18:37:28.296Z,97125.13
2022-12-15T18:39:58.314Z,97119.00
2022-12-15T18:42:31.698Z,97118.84
2022-12-15T18:45:00.641Z,97116.91
2022-12-15T18:47:28.273Z,97122.75
2022-12-15T18:49:55.698Z,97110.47
2022-12-15T18:52:27.644Z,97115.53
2022-12-15T18:54:57.680Z,97112.09
2022-12-15T18:57:30.190Z,97116.19
2022-12-15T19:00:01.839Z,97110.78
2022-12-15T19:02:32.349Z,97111.81
2022-12-15T19:04:59.908Z,97118.50
2022-12-15T19:07:27.762Z,97110.09
2022-12-15T19:09:55.649Z,97126.16
2022-12-15T19:12:23.118Z,97115.56
2022-12-15T19:14:52.202Z,97107.34
2022-12-15T19:17:40.469Z,97104.22
2022-12-15T19:20:47.045Z,97101.97
2022-12-15T19:23:15.406Z,97091.03
2022-12-15T19:25:44.444Z,97093.00
2022-12-15T19:28:20.088Z,97105.59
2022-12-15T19:30:47.797Z,97106.56
2022-12-15T19:33:17.091Z,97115.16
2022-12-15T19:35:50.378Z,97105.88
2022-12-15T19:38:25.417Z,97105.88
2022-12-15T19:40:54.395Z,97102.59
2022-12-15T19:43:24.049Z,97098.38
2022-12-15T19:45:52.639Z,97094.19
2022-12-15T19:48:23.708Z,97096.47
2022-12-15T19:50:52.317Z,97099.06
2022-12-15T19:53:28.468Z,97093.41
2022-12-15T19:55:58.618Z,97087.28
2022-12-15T19:58:32.209Z,97089.72
2022-12-15T20:01:04.796Z,97076.44
2022-12-15T20:03:33.233Z,97068.56
2022-12-15T20:06:02.451Z,97072.56
2022-12-15T20:08:36.069Z,97075.44
2022-12-15T20:11:03.807Z,97087.97
2022-12-15T20:13:31.647Z,97094.06
2022-12-15T20:15:59.350Z,97097.19
2022-12-15T20:18:26.758Z,97096.50
2022-12-15T20:20:54.343Z,97095.75
2022-12-15T20:23:29.572Z,97091.94
2022-12-15T20:25:57.879Z,97084.53
2022-12-15T20:28:29.282Z,97076.31
2022-12-15T20:30:57.914Z,97068.75
2022-12-15T20:33:25.409Z,97065.38
2022-12-15T20:35:53.078Z,97062.13
2022-12-15T20:38:31.943Z,97068.88
2022-12-15T20:41:01.314Z,97064.56
2022-12-15T20:43:31.999Z,97064.75
2022-12-15T20:46:13.102Z,97048.50
2022-12-15T20:48:40.968Z,97050.84
2022-12-15T20:51:14.824Z,97046.63
2022-12-15T20:53:43.919Z,97037.91
2022-12-15T20:56:11.308Z,97024.28
2022-12-15T20:58:39.090Z,97020.03
2022-12-15T21:01:22.540Z,97032.88
2022-12-15T21:03:51.814Z,97030.28
2022-12-15T21:06:19.837Z,97028.78
2022-12-15T21:08:47.376Z,97045.59
2022-12-15T21:11:22.119Z,97035.50
2022-12-15T21:13:50.738Z,97040.53
2022-12-15T21:16:21.982Z,97044.78
2022-12-15T21:19:19.100Z,97027.53
2022-12-15T21:21:43.138Z,97021.94
2022-12-15T21:24:22.813Z,97019.56
2022-12-15T21:26:51.387Z,97025.28
2022-12-15T21:29:22.023Z,97015.47
2022-12-15T21:31:49.554Z,97017.91
2022-12-15T21:34:17.344Z,97022.28
2022-12-15T21:36:47.637Z,97023.78
2022-12-15T21:39:33.117Z,97012.88
2022-12-15T21:42:21.287Z,97018.06
2022-12-15T21:44:48.795Z,97011.91
2022-12-15T21:47:50.230Z,97012.56
2022-12-15T21:50:20.151Z,97015.41
2022-12-15T21:52:48.387Z,97016.75
2022-12-15T21:55:17.960Z,97011.94
2022-12-15T21:57:45.665Z,97007.41
2022-12-15T22:00:16.270Z,97017.78
2022-12-15T22:02:45.899Z,97022.69
2022-12-15T22:05:20.323Z,97010.69
2022-12-15T22:07:51.666Z,97011.13
2022-12-15T22:10:19.520Z,97007.69
2022-12-15T22:12:59.111Z,97003.34
2022-12-15T22:15:29.041Z,97004.16
2022-12-15T22:17:56.628Z,97013.44
2022-12-15T22:20:25.335Z,97017.78
2022-12-15T22:22:52.805Z,97021.06
2022-12-15T22:25:26.529Z,97025.44
2022-12-15T22:27:54.866Z,97017.50
2022-12-15T22:30:27.060Z,97032.78
2022-12-15T22:32:54.735Z,97029.53
2022-12-15T22:35:25.350Z,97035.53
2022-12-15T22:37:56.511Z,97037.03
2022-12-15T22:40:24.992Z,97037.97
2022-12-15T22:42:57.961Z,97032.94
2022-12-15T22:45:25.747Z,97039.22
2022-12-15T22:47:55.193Z,97035.44
2022-12-15T22:50:25.428Z,97040.19
2022-12-15T22:52:53.274Z,97037.84
2022-12-15T22:55:24.428Z,97042.44
2022-12-15T22:58:07.268Z,97040.25
2022-12-15T23:00:34.984Z,97037.50
2022-12-15T23:03:02.643Z,97046.09
2022-12-15T23:05:30.498Z,97043.56
2022-12-15T23:07:59.228Z,97046.25
2022-12-15T23:10:45.798Z,97048.91
2022-12-15T23:13:13.337Z,97049.50
2022-12-15T23:15:59.601Z,97042.53
2022-12-15T23:18:27.198Z,97032.97
2022-12-15T23:20:54.729Z,97026.81
2022-12-15T23:23:22.258Z,97029.09
2022-12-15T23:25:49.736Z,97026.06
2022-12-15T23:28:17.363Z,97018.56
2022-12-15T23:30:49.805Z,97015.09
2022-12-15T23:33:18.036Z,97012.78
2022-12-15T23:35:46.098Z,97003.50
2022-12-15T23:38:14.419Z,97011.69
2022-12-15T23:40:52.845Z,97008.69
2022-12-15T23:43:21.897Z,97012.63
2022-12-15T23:46:00.191Z,96999.63
2022-12-15T23:48:32.906Z,97002.13
2022-12-15T23:51:16.970Z,97006.09
2022-12-15T23:53:46.216Z,97010.09
2022-12-15T23:56:16.529Z,97004.53
2022-12-15T23:58:45.958Z,97001.94
